Time;durP1;ratioP1;P1;durP2;ratioP2;P2;SDS_P1;SDS_P2;PMS_P1;PMS_P2;Temp;Humidity;BMP_temperature;BMP_pressure;BME280_temperature;BME280_humidity;BME280_pressure;Samples;Min_cycle;Max_cycle;Signal;HPM_P1;HPM_P2
2022/08/01 05:01:26;;;;;;;3.72;1.48;;;20.90;87.80;;;;;;5775894;23;20029;-71
2022/08/01 05:03:52;;;;;;;2.55;1.60;;;21.00;87.90;;;;;;4917781;29;20032;-73
2022/08/01 05:06:17;;;;;;;5.13;2.05;;;21.10;87.90;;;;;;4918969;29;20306;-72
2022/08/01 05:08:43;;;;;;;4.38;1.55;;;21.10;88.10;;;;;;4910682;29;20027;-72
2022/08/01 05:11:09;;;;;;;3.38;1.35;;;21.20;88.00;;;;;;4911515;29;20044;-71
2022/08/01 05:13:34;;;;;;;2.28;1.50;;;21.30;88.10;;;;;;4908360;29;20044;-72
2022/08/01 05:16:03;;;;;;;3.95;1.50;;;21.30;88.10;;;;;;4907680;29;20137;-72
2022/08/01 05:18:29;;;;;;;;;;;21.40;88.00;;;;;;4914772;29;20036;-72
2022/08/01 05:20:55;;;;;;;3.80;1.40;;;21.40;87.90;;;;;;4910142;29;19913;-72
2022/08/01 05:23:21;;;;;;;2.05;1.30;;;21.50;87.80;;;;;;4926948;29;20425;-72
2022/08/01 05:25:48;;;;;;;2.42;1.50;;;21.50;87.70;;;;;;4926912;29;20020;-72
2022/08/01 05:28:14;;;;;;;2.80;1.45;;;21.60;87.60;;;;;;4901723;29;20281;-75
2022/08/01 05:30:40;;;;;;;2.58;1.27;;;21.70;87.30;;;;;;4893238;29;20032;-71
2022/08/01 05:33:06;;;;;;;4.95;1.40;;;21.70;87.20;;;;;;4926688;29;20110;-72
2022/08/01 05:35:35;;;;;;;2.15;1.40;;;21.80;87.10;;;;;;4908633;29;20068;-72
2022/08/01 05:38:04;;;;;;;3.03;1.35;;;21.90;86.80;;;;;;4910079;29;20040;-71
2022/08/01 05:40:30;;;;;;;3.05;1.40;;;22.00;86.70;;;;;;4926883;29;20028;-73
2022/08/01 05:42:56;;;;;;;2.83;1.35;;;22.10;86.70;;;;;;4926628;29;20032;-71
2022/08/01 05:45:22;;;;;;;4.43;1.30;;;22.10;86.50;;;;;;4894230;29;20048;-72
2022/08/01 05:47:47;;;;;;;2.75;1.27;;;22.20;86.50;;;;;;4909397;29;20039;-72
2022/08/01 05:50:13;;;;;;;3.03;1.70;;;22.20;86.40;;;;;;4915350;29;20346;-71
2022/08/01 05:52:39;;;;;;;3.75;1.45;;;22.30;86.20;;;;;;4921249;29;20099;-72
2022/08/01 05:55:05;;;;;;;2.22;1.50;;;22.40;86.10;;;;;;4925878;29;20234;-72
2022/08/01 05:57:31;;;;;;;2.00;1.10;;;22.60;85.60;;;;;;4912306;29;20027;-71
2022/08/01 05:59:57;;;;;;;4.40;2.03;;;22.70;85.40;;;;;;4890822;29;20036;-70
2022/08/01 06:02:24;;;;;;;3.97;1.40;;;22.70;85.40;;;;;;4889236;29;20298;-71
2022/08/01 06:04:53;;;;;;;1.95;1.02;;;22.80;85.50;;;;;;4898511;29;20028;-69
2022/08/01 06:07:25;;;;;;;2.70;1.13;;;22.90;85.60;;;;;;4914071;29;20031;-69
2022/08/01 06:09:54;;;;;;;3.70;1.17;;;23.00;85.20;;;;;;4901689;29;20088;-69
2022/08/01 06:12:20;;;;;;;2.97;1.02;;;23.10;84.70;;;;;;4906032;29;20032;-70
2022/08/01 06:14:46;;;;;;;1.98;0.77;;;23.10;84.70;;;;;;4908360;29;20556;-69
2022/08/01 06:17:12;;;;;;;3.83;0.90;;;23.20;84.50;;;;;;4877815;29;20111;-69
2022/08/01 06:19:41;;;;;;;1.70;1.00;;;23.20;84.40;;;;;;4883368;29;20027;-69
2022/08/01 06:22:10;;;;;;;1.90;0.98;;;23.30;84.60;;;;;;4888656;29;20044;-68
2022/08/01 06:24:36;;;;;;;2.47;0.98;;;23.50;84.20;;;;;;4909673;29;20023;-69
2022/08/01 06:27:02;;;;;;;1.83;0.75;;;23.50;84.00;;;;;;4884312;29;20095;-68
2022/08/01 06:29:31;;;;;;;2.58;0.80;;;23.30;84.50;;;;;;4920589;29;20028;-69
2022/08/01 06:31:56;;;;;;;;;;;23.30;84.80;;;;;;4906191;29;20431;-69
2022/08/01 06:34:25;;;;;;;2.53;0.85;;;23.40;84.40;;;;;;4909266;29;19908;-69
2022/08/01 06:36:57;;;;;;;1.85;0.80;;;23.50;84.40;;;;;;4924547;29;20036;-69
2022/08/01 06:39:28;;;;;;;3.25;0.70;;;23.50;84.60;;;;;;4907315;29;20039;-69
2022/08/01 06:41:54;;;;;;;1.17;0.60;;;23.60;84.30;;;;;;4918548;29;20059;-75
2022/08/01 06:44:26;;;;;;;1.65;0.60;;;23.80;84.00;;;;;;4904121;29;20036;-74
2022/08/01 06:46:58;;;;;;;1.25;0.70;;;23.80;84.00;;;;;;4923932;29;20032;-77
2022/08/01 06:49:27;;;;;;;1.80;0.65;;;24.00;83.10;;;;;;4908046;29;20032;-77
2022/08/01 06:51:53;;;;;;;2.13;0.80;;;24.00;83.20;;;;;;4907496;29;20062;-74
2022/08/01 06:54:18;;;;;;;1.80;0.70;;;24.10;82.40;;;;;;4924219;29;20046;-74
2022/08/01 06:56:45;;;;;;;4.10;1.00;;;24.00;83.00;;;;;;4907686;29;20165;-74
2022/08/01 06:59:14;;;;;;;3.13;1.00;;;24.10;82.70;;;;;;4891658;29;20040;-73
2022/08/01 07:01:40;;;;;;;3.45;0.90;;;24.20;82.40;;;;;;4902660;29;20057;-73
2022/08/01 07:04:12;;;;;;;1.65;0.70;;;24.30;81.90;;;;;;4858462;29;20231;-75
2022/08/01 07:06:38;;;;;;;2.97;1.10;;;24.40;81.70;;;;;;4905189;29;20024;-74
2022/08/01 07:09:07;;;;;;;4.80;1.33;;;24.40;81.30;;;;;;4896559;29;20031;-72
2022/08/01 07:11:38;;;;;;;2.38;0.77;;;24.50;81.40;;;;;;4890885;29;20040;-73
2022/08/01 07:14:07;;;;;;;2.78;0.70;;;24.60;81.00;;;;;;4924427;29;20380;-73
2022/08/01 07:16:36;;;;;;;2.80;0.90;;;24.90;80.30;;;;;;4923690;29;20244;-73
2022/08/01 07:19:02;;;;;;;2.58;0.80;;;25.10;79.40;;;;;;4907500;29;20060;-75
2022/08/01 07:21:30;;;;;;;1.90;0.70;;;25.30;78.70;;;;;;4921182;29;20055;-75
2022/08/01 07:24:02;;;;;;;;;;;25.40;78.40;;;;;;4920609;29;20587;-75
2022/08/01 07:26:28;;;;;;;2.80;0.95;;;25.30;77.70;;;;;;4905743;29;19907;-73
2022/08/01 07:28:54;;;;;;;1.65;0.80;;;25.10;78.70;;;;;;4924925;29;20067;-75
2022/08/01 07:31:32;;;;;;;3.33;0.90;;;24.70;79.80;;;;;;4920577;29;20050;-75
2022/08/01 07:34:00;;;;;;;2.58;0.88;;;24.60;80.00;;;;;;4924723;29;20036;-74
2022/08/01 07:36:26;;;;;;;1.65;0.80;;;24.40;80.50;;;;;;4891572;29;20219;-75
2022/08/01 07:38:52;;;;;;;2.13;0.85;;;24.60;80.90;;;;;;4923289;29;20040;-75
2022/08/01 07:41:18;;;;;;;2.70;1.00;;;24.90;80.00;;;;;;4901981;29;20044;-75
2022/08/01 07:43:44;;;;;;;3.80;0.95;;;25.20;79.10;;;;;;4916690;29;20088;-75
2022/08/01 07:46:13;;;;;;;3.35;1.00;;;25.50;78.40;;;;;;4898866;29;20326;-74
2022/08/01 07:48:38;;;;;;;;;;;25.80;77.30;;;;;;4896160;29;20063;-75
2022/08/01 07:51:04;;;;;;;1.80;0.80;;;25.90;76.60;;;;;;4908461;29;20189;-76
2022/08/01 07:53:32;;;;;;;3.35;1.10;;;25.90;76.60;;;;;;4908362;29;20028;-74
2022/08/01 07:55:58;;;;;;;;;;;25.90;77.10;;;;;;4909069;29;20066;-74
2022/08/01 07:58:30;;;;;;;2.80;1.08;;;25.70;76.70;;;;;;4908532;29;20104;-75
2022/08/01 08:01:10;;;;;;;2.58;1.10;;;25.60;77.20;;;;;;4875859;29;20076;-77
2022/08/01 08:03:48;;;;;;;4.35;1.30;;;25.70;77.00;;;;;;4885000;29;20132;-77
2022/08/01 08:06:33;;;;;;;4.70;1.13;;;26.00;76.70;;;;;;4898765;29;20028;-75
2022/08/01 08:08:59;;;;;;;4.00;1.30;;;26.40;75.60;;;;;;4896017;29;20028;-74
2022/08/01 08:11:24;;;;;;;3.03;1.40;;;26.70;75.00;;;;;;4896089;29;20036;-75
2022/08/01 08:13:56;;;;;;;2.47;1.08;;;26.80;74.20;;;;;;4896499;29;20218;-75
2022/08/01 08:16:28;;;;;;;1.95;1.10;;;27.10;73.70;;;;;;4902987;29;20040;-74
2022/08/01 08:18:56;;;;;;;2.63;1.17;;;27.10;73.50;;;;;;4903400;29;20222;-73
2022/08/01 08:21:22;;;;;;;2.47;1.13;;;27.10;74.00;;;;;;4899057;29;20024;-74
2022/08/01 08:26:33;;;;;;;2.35;1.27;;;27.10;72.90;;;;;;4899433;29;20520;-73
2022/08/01 08:29:04;;;;;;;2.97;1.40;;;26.90;73.50;;;;;;4899467;29;20033;-74
2022/08/01 08:31:39;;;;;;;1.90;1.02;;;26.80;73.40;;;;;;4897281;29;20057;-74
2022/08/01 08:34:08;;;;;;;3.35;1.33;;;26.80;73.80;;;;;;4900175;29;20199;-74
2022/08/01 08:36:34;;;;;;;2.67;1.10;;;27.10;73.50;;;;;;4901145;29;20146;-75
2022/08/01 08:39:00;;;;;;;2.05;1.10;;;27.40;72.60;;;;;;4898158;29;20060;-75
2022/08/01 08:41:39;;;;;;;2.30;1.10;;;27.60;72.10;;;;;;4897807;29;20075;-76
2022/08/01 08:44:11;;;;;;;2.58;1.20;;;27.50;72.00;;;;;;4905592;29;20385;-75
2022/08/01 08:46:43;;;;;;;2.35;1.30;;;27.30;73.00;;;;;;4904499;29;20045;-74
2022/08/01 08:49:16;;;;;;;2.65;1.30;;;27.30;72.80;;;;;;4875379;29;20115;-73
2022/08/01 08:51:51;;;;;;;1.70;0.90;;;27.30;72.70;;;;;;4907513;29;20087;-77
2022/08/01 08:54:24;;;;;;;2.95;1.10;;;27.50;72.60;;;;;;4907445;29;20084;-78
2022/08/01 08:56:52;;;;;;;3.58;1.13;;;27.70;72.50;;;;;;4900587;29;20028;-75
2022/08/01 08:59:24;;;;;;;3.22;1.70;;;28.00;71.80;;;;;;4864305;29;20375;-75
2022/08/01 09:01:50;;;;;;;3.55;1.40;;;28.00;71.30;;;;;;4889749;29;20055;-75
2022/08/01 09:04:22;;;;;;;4.18;2.00;;;28.00;71.20;;;;;;4876444;29;20063;-75
2022/08/01 09:06:48;;;;;;;3.30;2.28;;;28.20;70.60;;;;;;4910768;29;20052;-76
2022/08/01 09:09:33;;;;;;;4.85;2.35;;;28.00;71.70;;;;;;4877795;29;20036;-76
2022/08/01 09:12:06;;;;;;;3.88;1.80;;;28.10;71.30;;;;;;4890808;29;20047;-74
2022/08/01 09:14:43;;;;;;;7.22;2.08;;;28.60;70.40;;;;;;4887040;29;20048;-75
2022/08/01 09:17:24;;;;;;;5.55;2.95;;;28.60;69.70;;;;;;4904650;29;20134;-75
2022/08/01 09:19:51;;;;;;;5.28;3.35;;;28.50;69.50;;;;;;4925857;29;20036;-76
2022/08/01 09:22:31;;;;;;;5.45;2.75;;;28.30;69.80;;;;;;4925492;29;20191;-75
2022/08/01 09:25:32;;;;;;;6.18;3.85;;;28.60;69.70;;;;;;4925862;29;20036;-75
2022/08/01 09:28:30;;;;;;;6.57;4.05;;;28.60;69.30;;;;;;4867139;29;20056;-75
2022/08/01 09:31:09;;;;;;;4.35;3.30;;;28.70;69.10;;;;;;4915210;29;20033;-75
2022/08/01 09:33:54;;;;;;;4.93;3.35;;;28.90;68.50;;;;;;4915627;29;20048;-75
2022/08/01 09:36:27;;;;;;;6.05;3.60;;;29.00;69.20;;;;;;4915141;29;20032;-75
2022/08/01 09:39:15;;;;;;;5.28;3.20;;;28.70;68.70;;;;;;4906739;29;20039;-75
2022/08/01 09:41:56;;;;;;;5.25;2.50;;;28.70;69.40;;;;;;4906689;29;20065;-74
2022/08/01 09:44:45;;;;;;;5.18;2.40;;;28.90;69.30;;;;;;4906297;29;20314;-75
2022/08/01 09:47:30;;;;;;;4.53;2.90;;;28.90;69.50;;;;;;4905443;29;20357;-75
2022/08/01 09:49:57;;;;;;;5.07;3.08;;;29.00;68.70;;;;;;4907770;29;20028;-74
2022/08/01 09:53:05;;;;;;;5.63;3.10;;;29.00;68.50;;;;;;4925237;29;20111;-74
2022/08/01 09:55:55;;;;;;;5.45;2.63;;;29.00;68.10;;;;;;4924584;29;20048;-75
2022/08/01 09:58:25;;;;;;;4.15;2.97;;;29.30;67.80;;;;;;4906476;29;20044;-75
2022/08/01 10:01:14;;;;;;;5.85;3.70;;;29.30;67.60;;;;;;4881423;29;20056;-75
2022/08/01 10:03:52;;;;;;;4.18;2.90;;;29.40;67.30;;;;;;4859729;29;20070;-74
2022/08/01 10:06:33;;;;;;;4.93;3.00;;;29.60;67.10;;;;;;4875836;29;20311;-74
2022/08/01 10:08:58;;;;;;;4.40;3.20;;;29.50;67.00;;;;;;4874679;29;20029;-73
2022/08/01 10:11:45;;;;;;;5.40;3.08;;;29.40;67.30;;;;;;4879608;29;20315;-73
2022/08/01 10:14:14;;;;;;;5.00;3.10;;;29.50;67.80;;;;;;4885257;29;20045;-75
2022/08/01 10:16:40;;;;;;;6.63;3.05;;;29.60;66.70;;;;;;4875110;29;20355;-76
2022/08/01 10:19:16;;;;;;;5.18;2.83;;;29.30;66.90;;;;;;4850633;29;20100;-76
2022/08/01 10:21:44;;;;;;;4.78;2.80;;;29.10;68.00;;;;;;4851157;29;20041;-76
2022/08/01 10:24:12;;;;;;;3.83;2.45;;;29.30;67.70;;;;;;4875119;29;20040;-76
2022/08/01 10:26:38;;;;;;;;;;;29.50;67.50;;;;;;4885535;29;20409;-75
2022/08/01 10:29:05;;;;;;;3.65;2.20;;;29.40;67.40;;;;;;4866125;29;20254;-76
2022/08/01 10:31:52;;;;;;;4.95;2.40;;;29.80;66.60;;;;;;4850421;29;20142;-76
2022/08/01 10:34:23;;;;;;;4.47;2.20;;;30.00;66.80;;;;;;4878981;29;20039;-74
2022/08/01 10:36:50;;;;;;;4.47;2.38;;;29.80;66.10;;;;;;4869510;29;20061;-76
2022/08/01 10:39:42;;;;;;;3.08;1.90;;;29.80;66.40;;;;;;4914466;29;20084;-72
2022/08/01 10:42:17;;;;;;;9.15;2.03;;;29.80;66.30;;;;;;4913138;29;20029;-72
2022/08/01 10:44:46;;;;;;;3.08;1.88;;;29.90;66.60;;;;;;4923625;29;20054;-73
2022/08/01 10:47:58;;;;;;;2.83;1.60;;;30.40;65.40;;;;;;4890290;29;20068;-74
2022/08/01 10:50:50;;;;;;;4.95;2.40;;;30.90;64.30;;;;;;4837430;29;20050;-72
2022/08/01 10:53:24;;;;;;;3.10;1.90;;;31.00;63.50;;;;;;4905930;29;20330;-72
2022/08/01 10:56:05;;;;;;;2.38;1.80;;;30.60;63.40;;;;;;4916655;29;20095;-72
2022/08/01 10:59:02;;;;;;;2.45;1.55;;;30.00;64.70;;;;;;4904651;29;20031;-73
2022/08/01 11:01:40;;;;;;;2.90;1.70;;;29.70;65.90;;;;;;4905212;29;20032;-73
2022/08/01 11:04:09;;;;;;;4.03;1.88;;;29.50;66.50;;;;;;4909561;29;20103;-73
2022/08/01 11:06:34;;;;;;;3.25;1.90;;;29.90;66.10;;;;;;4908741;29;20167;-72
2022/08/01 11:09:12;;;;;;;4.50;1.75;;;30.20;64.30;;;;;;4910088;29;20024;-72
2022/08/01 11:12:11;;;;;;;3.97;1.50;;;30.00;64.90;;;;;;4911606;29;20336;-72
2022/08/01 11:14:59;;;;;;;2.72;1.50;;;30.30;64.40;;;;;;4923010;29;20048;-73
2022/08/01 11:17:38;;;;;;;3.15;1.75;;;30.80;63.70;;;;;;4926656;29;20400;-73
2022/08/01 11:20:14;;;;;;;2.50;1.90;;;31.00;63.00;;;;;;4895364;29;20054;-72
2022/08/01 11:23:01;;;;;;;2.97;1.55;;;31.00;62.60;;;;;;4910944;29;20271;-74
2022/08/01 11:25:48;;;;;;;3.42;1.80;;;30.90;63.00;;;;;;4927512;29;20032;-72
2022/08/01 11:28:14;;;;;;;3.05;1.70;;;31.00;62.50;;;;;;4927238;29;20207;-74
2022/08/01 11:30:47;;;;;;;3.08;1.80;;;31.30;62.20;;;;;;4926885;29;20068;-71
2022/08/01 11:33:16;;;;;;;2.13;1.58;;;31.20;62.70;;;;;;4927159;29;20047;-72
2022/08/01 11:36:10;;;;;;;3.33;1.50;;;31.40;62.00;;;;;;4895229;29;20035;-74
2022/08/01 11:38:41;;;;;;;3.15;1.50;;;31.30;61.70;;;;;;4924103;29;20210;-72
2022/08/01 11:41:11;;;;;;;2.58;1.63;;;31.30;61.90;;;;;;4922337;29;20063;-73
2022/08/01 11:44:27;;;;;;;2.13;1.35;;;32.20;61.20;;;;;;4897960;29;20321;-72
2022/08/01 11:47:11;;;;;;;2.38;1.60;;;33.20;59.00;;;;;;4890784;29;20144;-73
2022/08/01 11:49:37;;;;;;;2.45;1.40;;;33.00;58.30;;;;;;4891049;29;20067;-74
2022/08/01 11:52:17;;;;;;;4.55;1.70;;;32.80;59.30;;;;;;4891432;29;20032;-73
2022/08/01 11:54:53;;;;;;;2.20;1.45;;;32.30;59.60;;;;;;4891707;29;20524;-75
2022/08/01 11:57:30;;;;;;;3.45;1.42;;;31.80;60.10;;;;;;4908121;29;20319;-74
2022/08/01 12:00:19;;;;;;;5.07;1.70;;;31.50;60.80;;;;;;4908497;29;20063;-72
2022/08/01 12:03:11;;;;;;;2.08;1.33;;;31.60;60.90;;;;;;4909013;29;20056;-73
2022/08/01 12:05:37;;;;;;;3.63;1.65;;;31.60;60.40;;;;;;4927087;29;20046;-73
2022/08/01 12:08:10;;;;;;;4.88;1.55;;;31.70;60.50;;;;;;4910601;29;20066;-73
2022/08/01 12:10:51;;;;;;;4.05;1.50;;;31.60;60.50;;;;;;4926380;29;20353;-73
2022/08/01 12:13:17;;;;;;;2.40;1.30;;;31.20;60.90;;;;;;4926316;29;20040;-73
2022/08/01 12:15:45;;;;;;;2.25;1.70;;;30.90;61.70;;;;;;4909595;29;20039;-73
2022/08/01 12:18:11;;;;;;;2.03;1.33;;;31.00;61.30;;;;;;4926668;29;20051;-73
2022/08/01 12:20:40;;;;;;;2.30;1.45;;;32.60;60.70;;;;;;4926581;29;20025;-73
2022/08/01 12:23:17;;;;;;;3.35;1.50;;;34.80;57.80;;;;;;4926494;29;20401;-74
2022/08/01 12:25:59;;;;;;;2.33;1.20;;;35.70;55.90;;;;;;4927075;29;20055;-73
2022/08/01 12:28:28;;;;;;;2.63;1.25;;;35.30;55.20;;;;;;4926432;29;20382;-73
2022/08/01 12:30:54;;;;;;;2.28;1.20;;;35.00;55.10;;;;;;4925732;29;20043;-72
2022/08/01 12:33:41;;;;;;;4.00;1.52;;;34.20;55.70;;;;;;4909438;29;20258;-72
2022/08/01 12:36:08;;;;;;;3.53;1.40;;;33.00;57.30;;;;;;4907664;29;20083;-73
2022/08/01 12:38:33;;;;;;;3.78;1.40;;;32.10;59.30;;;;;;4907436;29;20044;-72
2022/08/01 12:41:00;;;;;;;5.57;1.30;;;31.40;60.80;;;;;;4907231;29;20154;-73
2022/08/01 12:43:31;;;;;;;3.78;1.50;;;31.00;61.90;;;;;;4882095;29;20208;-72
2022/08/01 12:46:01;;;;;;;4.55;1.52;;;30.90;62.00;;;;;;4906945;29;20068;-73
2022/08/01 12:48:31;;;;;;;12.50;2.00;;;31.20;61.50;;;;;;4906999;29;20128;-72
2022/08/01 12:51:03;;;;;;;2.25;1.48;;;32.80;59.60;;;;;;4907634;29;20255;-72
2022/08/01 12:53:35;;;;;;;3.28;1.77;;;33.70;58.50;;;;;;4906870;29;20032;-73
2022/08/01 12:56:01;;;;;;;3.08;1.30;;;35.40;56.40;;;;;;4907412;29;20035;-73
2022/08/01 12:58:33;;;;;;;4.60;1.20;;;37.30;53.70;;;;;;4907233;29;20433;-73
2022/08/01 13:01:12;;;;;;;2.60;1.23;;;38.00;52.90;;;;;;4906818;29;21323;-73
2022/08/01 13:03:40;;;;;;;2.65;1.02;;;38.00;52.40;;;;;;4871104;29;20276;-73
2022/08/01 13:06:15;;;;;;;2.80;1.48;;;37.30;52.80;;;;;;4886538;29;20356;-73
2022/08/01 13:08:44;;;;;;;3.50;1.40;;;36.40;54.10;;;;;;4888774;29;20033;-73
2022/08/01 13:11:26;;;;;;;4.43;1.20;;;35.40;54.50;;;;;;4905615;29;20039;-74
2022/08/01 13:13:56;;;;;;;3.85;1.50;;;34.70;56.20;;;;;;4907340;29;20054;-73
2022/08/01 13:16:48;;;;;;;3.03;1.10;;;36.30;54.40;;;;;;4882825;29;20083;-73
2022/08/01 13:19:16;;;;;;;2.95;1.40;;;38.70;52.50;;;;;;4888104;29;20279;-73
2022/08/01 13:22:07;;;;;;;2.88;1.10;;;38.80;51.30;;;;;;4888194;29;20056;-74
2022/08/01 13:24:33;;;;;;;2.22;1.17;;;38.50;51.10;;;;;;4887756;29;20033;-73
2022/08/01 13:27:03;;;;;;;2.80;1.15;;;37.60;52.10;;;;;;4888186;29;20119;-73
2022/08/01 13:29:49;;;;;;;2.85;1.00;;;38.60;52.00;;;;;;4888053;29;20041;-74
2022/08/01 13:32:21;;;;;;;1.98;1.00;;;40.50;50.30;;;;;;4886184;29;20073;-73
2022/08/01 13:34:47;;;;;;;3.17;1.05;;;40.80;49.20;;;;;;4906751;29;20183;-73
2022/08/01 13:37:42;;;;;;;2.75;1.10;;;40.20;49.60;;;;;;4893170;29;20073;-73
2022/08/01 13:40:09;;;;;;;2.58;1.15;;;40.70;49.10;;;;;;4906604;29;20029;-73
2022/08/01 13:42:35;;;;;;;1.77;1.08;;;40.50;48.80;;;;;;4902950;29;20033;-73
2022/08/01 13:45:08;;;;;;;1.92;0.95;;;39.30;49.70;;;;;;4868144;29;20075;-74
2022/08/01 13:47:34;;;;;;;3.33;1.10;;;37.70;51.40;;;;;;4871202;29;20094;-73
2022/08/01 13:50:06;;;;;;;2.67;1.27;;;36.90;52.30;;;;;;4869566;29;20089;-73
2022/08/01 13:52:32;;;;;;;2.75;1.00;;;36.20;53.10;;;;;;4868781;29;20041;-73
2022/08/01 13:55:01;;;;;;;2.25;1.45;;;37.30;52.60;;;;;;4852827;29;20068;-73
2022/08/01 13:57:30;;;;;;;2.47;1.05;;;38.50;51.10;;;;;;4868772;29;20244;-73
2022/08/01 13:59:59;;;;;;;1.73;0.90;;;40.60;50.10;;;;;;4868976;29;20037;-73
2022/08/01 14:02:28;;;;;;;2.13;0.80;;;43.00;47.70;;;;;;4894522;29;20199;-74
2022/08/01 14:04:58;;;;;;;2.53;1.02;;;42.20;47.10;;;;;;4888848;29;20045;-73
2022/08/01 14:07:25;;;;;;;1.80;0.90;;;40.40;48.60;;;;;;4888059;29;20104;-73
2022/08/01 14:09:54;;;;;;;1.70;0.85;;;39.40;49.90;;;;;;4906092;29;20126;-74
2022/08/01 14:12:19;;;;;;;2.95;0.82;;;41.10;49.10;;;;;;4905579;29;20076;-73
2022/08/01 14:14:45;;;;;;;1.77;0.90;;;43.10;47.70;;;;;;4889581;29;20259;-73
2022/08/01 14:17:11;;;;;;;2.53;1.08;;;43.30;46.50;;;;;;4901303;29;20049;-73
2022/08/01 14:19:40;;;;;;;4.28;1.08;;;41.60;47.10;;;;;;4855238;29;20052;-72
2022/08/01 14:22:09;;;;;;;2.88;1.30;;;39.20;49.40;;;;;;4887139;29;20037;-73
2022/08/01 14:24:40;;;;;;;2.05;1.10;;;38.20;51.10;;;;;;4855530;29;20121;-73
2022/08/01 14:27:15;;;;;;;2.03;1.02;;;37.50;51.40;;;;;;4888661;29;20043;-74
2022/08/01 14:29:41;;;;;;;3.60;1.25;;;36.80;52.30;;;;;;4887601;29;20033;-73
2022/08/01 14:32:07;;;;;;;2.38;0.90;;;36.50;52.40;;;;;;4871213;29;20041;-72
2022/08/01 14:34:32;;;;;;;2.65;1.25;;;36.60;52.70;;;;;;4872562;29;20061;-72
2022/08/01 14:36:58;;;;;;;5.50;1.23;;;36.40;52.80;;;;;;4889072;29;20036;-72
2022/08/01 14:39:30;;;;;;;1.80;0.95;;;36.40;52.90;;;;;;4890573;29;20036;-73
2022/08/01 14:41:55;;;;;;;3.40;1.27;;;36.20;53.00;;;;;;4887637;29;20107;-75
2022/08/01 14:44:32;;;;;;;2.85;1.30;;;36.80;52.60;;;;;;4889167;29;20045;-73
2022/08/01 14:46:57;;;;;;;3.33;1.20;;;36.40;52.70;;;;;;4905100;29;20086;-75
2022/08/01 14:49:23;;;;;;;3.55;1.20;;;36.00;53.40;;;;;;4905311;29;20044;-74
2022/08/01 14:51:49;;;;;;;1.90;1.10;;;35.70;53.80;;;;;;4905532;29;20048;-73
2022/08/01 14:54:24;;;;;;;3.63;1.23;;;35.60;53.50;;;;;;4888923;29;20047;-73
2022/08/01 14:56:52;;;;;;;3.22;1.20;;;35.70;53.70;;;;;;4905388;29;20089;-73
2022/08/01 14:59:19;;;;;;;2.92;1.10;;;35.40;54.20;;;;;;4905366;29;20056;-74
2022/08/01 15:01:45;;;;;;;3.38;1.17;;;36.20;53.60;;;;;;4887558;29;20048;-70
2022/08/01 15:04:11;;;;;;;2.85;1.20;;;36.30;52.80;;;;;;4905741;29;20369;-71
2022/08/01 15:06:36;;;;;;;3.97;1.20;;;35.70;53.10;;;;;;4904960;29;20037;-70
2022/08/01 15:09:03;;;;;;;2.42;1.23;;;35.40;53.70;;;;;;4905255;29;20060;-71
2022/08/01 15:11:28;;;;;;;3.88;1.30;;;35.90;53.70;;;;;;4905057;29;20044;-71
2022/08/01 15:16:40;;;;;;;3.67;1.30;;;38.50;50.80;;;;;;4877457;29;20040;-71
2022/08/01 15:19:06;;;;;;;1.48;0.88;;;39.80;49.50;;;;;;4904454;29;20030;-70
2022/08/01 15:21:32;;;;;;;5.05;1.08;;;40.30;48.80;;;;;;4913576;29;20043;-70
2022/08/01 15:23:58;;;;;;;3.47;0.95;;;40.10;48.60;;;;;;4898536;29;20024;-70
2022/08/01 15:26:24;;;;;;;2.42;1.25;;;39.50;49.10;;;;;;4913637;29;20040;-71
2022/08/01 15:28:50;;;;;;;2.33;0.90;;;38.90;49.50;;;;;;4914620;29;20055;-72
2022/08/01 15:31:16;;;;;;;1.63;0.80;;;38.10;50.50;;;;;;4912807;29;20048;-71
2022/08/01 15:33:42;;;;;;;1.95;0.90;;;37.20;51.00;;;;;;4914958;29;20072;-70
2022/08/01 15:36:07;;;;;;;2.67;1.08;;;36.20;52.10;;;;;;4914424;29;20021;-71
2022/08/01 15:38:33;;;;;;;2.80;1.08;;;35.30;53.20;;;;;;4913345;29;20039;-69
2022/08/01 15:41:05;;;;;;;1.80;1.00;;;34.90;54.00;;;;;;4910797;29;20302;-70
2022/08/01 15:43:31;;;;;;;2.00;1.05;;;34.80;54.10;;;;;;4904952;29;20032;-72
2022/08/01 15:45:57;;;;;;;2.35;1.20;;;34.60;54.30;;;;;;4903998;29;20383;-72
2022/08/01 15:48:24;;;;;;;2.72;1.27;;;34.40;54.40;;;;;;4906421;29;20024;-71
2022/08/01 15:50:50;;;;;;;1.77;1.00;;;34.40;54.20;;;;;;4908760;29;20040;-70
2022/08/01 15:53:19;;;;;;;4.03;1.30;;;34.20;54.20;;;;;;4892327;29;20040;-70
2022/08/01 15:55:45;;;;;;;4.82;1.40;;;33.70;54.40;;;;;;4908057;29;20024;-70
2022/08/01 15:58:11;;;;;;;2.50;1.02;;;33.20;55.10;;;;;;4908272;29;20033;-70
2022/08/01 16:00:37;;;;;;;2.13;1.05;;;32.70;56.00;;;;;;4902604;29;20399;-69
2022/08/01 16:03:03;;;;;;;2.53;1.15;;;32.30;56.70;;;;;;4889460;29;20064;-70
2022/08/01 16:05:29;;;;;;;4.65;1.30;;;32.10;57.30;;;;;;4889373;29;20283;-71
2022/08/01 16:07:55;;;;;;;5.10;1.30;;;31.90;57.40;;;;;;4889522;29;20033;-70
2022/08/01 16:10:21;;;;;;;2.42;0.95;;;31.60;57.60;;;;;;4880671;29;20272;-70
2022/08/01 16:12:46;;;;;;;1.83;0.98;;;31.50;57.60;;;;;;4888859;29;20052;-73
2022/08/01 16:15:12;;;;;;;2.75;1.05;;;31.50;57.90;;;;;;4872242;29;20374;-71
2022/08/01 16:17:38;;;;;;;2.67;0.90;;;31.80;57.70;;;;;;4889161;29;20053;-71
2022/08/01 16:20:04;;;;;;;2.75;0.90;;;31.90;57.50;;;;;;4889010;29;20276;-70
2022/08/01 16:22:30;;;;;;;1.70;0.95;;;32.00;57.30;;;;;;4872519;29;20116;-71
2022/08/01 16:24:56;;;;;;;3.05;1.17;;;31.80;57.80;;;;;;4889504;29;20060;-71
2022/08/01 16:27:21;;;;;;;1.80;0.90;;;31.90;57.80;;;;;;4888940;29;20069;-72
2022/08/01 16:29:47;;;;;;;2.25;0.90;;;31.70;57.70;;;;;;4888810;29;20041;-70
2022/08/01 16:32:14;;;;;;;1.95;0.88;;;31.60;57.80;;;;;;4888656;29;20068;-75
2022/08/01 16:34:39;;;;;;;1.65;0.82;;;31.60;58.20;;;;;;4896678;29;20033;-72
2022/08/01 16:37:05;;;;;;;2.75;0.80;;;31.80;57.90;;;;;;4907435;29;20148;-71
2022/08/01 16:39:31;;;;;;;1.85;0.82;;;32.00;57.90;;;;;;4907262;29;20032;-71
2022/08/01 16:41:57;;;;;;;3.05;1.27;;;32.50;56.70;;;;;;4908037;29;20216;-72
2022/08/01 16:44:23;;;;;;;2.53;0.82;;;32.50;57.10;;;;;;4907825;29;20131;-70
2022/08/01 16:46:49;;;;;;;2.33;0.85;;;31.90;57.30;;;;;;4920479;29;20095;-70
2022/08/01 16:49:15;;;;;;;2.22;0.80;;;31.40;58.10;;;;;;4926389;29;20314;-71
2022/08/01 16:51:41;;;;;;;2.20;0.82;;;31.00;58.70;;;;;;4912628;29;20093;-72
2022/08/01 16:54:07;;;;;;;2.10;0.90;;;30.80;59.20;;;;;;4888771;29;20048;-71
2022/08/01 16:56:32;;;;;;;2.35;0.80;;;30.40;59.70;;;;;;4871459;29;20085;-71
2022/08/01 16:58:58;;;;;;;3.05;0.70;;;30.20;60.10;;;;;;4888256;29;20045;-71
2022/08/01 17:01:24;;;;;;;1.60;0.93;;;30.00;60.50;;;;;;4887943;29;20213;-71
2022/08/01 17:03:50;;;;;;;2.15;0.90;;;29.80;60.70;;;;;;4888577;29;20044;-73
2022/08/01 17:06:16;;;;;;;1.85;0.90;;;29.80;60.90;;;;;;4888567;29;20085;-71
2022/08/01 17:08:42;;;;;;;5.10;0.90;;;29.90;61.00;;;;;;4888369;29;20111;-72
2022/08/01 17:11:08;;;;;;;2.95;0.90;;;29.80;61.30;;;;;;4888608;29;20071;-71
2022/08/01 17:13:33;;;;;;;2.38;1.00;;;29.70;61.40;;;;;;4888296;29;20040;-72
2022/08/01 17:16:00;;;;;;;4.68;1.02;;;29.70;62.30;;;;;;4888087;29;20231;-70
2022/08/01 17:18:26;;;;;;;1.40;0.70;;;29.60;61.80;;;;;;4874259;29;20104;-74
2022/08/01 17:20:52;;;;;;;1.70;0.80;;;29.60;62.10;;;;;;4853301;29;20033;-71
2022/08/01 17:23:18;;;;;;;2.22;0.75;;;29.60;62.00;;;;;;4853307;29;20323;-72
2022/08/01 17:25:45;;;;;;;2.13;0.70;;;29.60;62.00;;;;;;4869334;29;20171;-71
2022/08/01 17:28:10;;;;;;;3.10;0.65;;;29.40;62.20;;;;;;4869849;29;20042;-70
2022/08/01 17:30:39;;;;;;;1.67;0.73;;;29.30;62.40;;;;;;4868932;29;20140;-73
2022/08/01 17:33:06;;;;;;;1.67;0.75;;;29.20;62.80;;;;;;4869492;29;20388;-71
2022/08/01 17:35:32;;;;;;;1.40;0.75;;;29.00;63.10;;;;;;4869298;29;20025;-71
2022/08/01 17:37:57;;;;;;;1.88;0.80;;;28.90;63.50;;;;;;4869530;29;20150;-73
2022/08/01 17:40:26;;;;;;;3.45;0.90;;;28.90;63.60;;;;;;4869828;29;20303;-72
2022/08/01 17:42:52;;;;;;;2.30;0.70;;;28.90;63.70;;;;;;4880004;29;20032;-73
2022/08/01 17:45:17;;;;;;;1.75;0.70;;;28.90;63.70;;;;;;4906198;29;20403;-73
2022/08/01 17:47:43;;;;;;;2.10;0.70;;;28.70;63.90;;;;;;4906500;29;20293;-72
2022/08/01 17:50:13;;;;;;;2.25;0.80;;;28.60;64.00;;;;;;4906495;29;20226;-70
2022/08/01 17:52:39;;;;;;;2.60;1.02;;;28.30;64.30;;;;;;4889112;29;20326;-72
2022/08/01 17:55:05;;;;;;;1.45;0.70;;;28.10;65.20;;;;;;4906568;29;20101;-72
2022/08/01 17:57:31;;;;;;;1.38;0.60;;;27.90;65.70;;;;;;4905939;29;20303;-71
2022/08/01 17:59:57;;;;;;;1.80;0.52;;;27.80;65.80;;;;;;4906723;29;20096;-71
2022/08/01 18:02:24;;;;;;;2.58;0.90;;;27.70;66.00;;;;;;4913912;29;20161;-69
2022/08/01 18:04:53;;;;;;;1.85;0.70;;;27.60;66.20;;;;;;4924681;29;20327;-71
2022/08/01 18:07:20;;;;;;;2.45;0.75;;;27.50;66.50;;;;;;4925406;29;20032;-70
2022/08/01 18:09:46;;;;;;;5.18;1.15;;;27.40;67.00;;;;;;4918072;29;20032;-71
2022/08/01 18:12:13;;;;;;;2.72;0.88;;;27.30;67.20;;;;;;4889597;29;20037;-71